Terminal Aerodrome Forecast
Issued by NWS

Home | Current Version | Previous Version | Text Only | Print | Product List | Glossary Off
Versions: 1 2 3 4 5 6 7 8 9 10 11 12 13 14 15 16 17 18 19 20 21 22 23 24 25 26 27 28 29 30

000
FTUS43 KLOT 271747 CCA
TAFMDW
TAF COR
KMDW 271747Z 2718/2818 18012G18KT P6SM VCSH FEW020 SCT100 BKN200
      TEMPO 2718/2719 6SM -SHRA SCT040 BKN080
     FM271900 17011G17KT P6SM VCTS BKN040CB BKN100
      TEMPO 2721/2724 4SM -TSRA BKN040CB BKN100
     FM280000 18009KT P6SM VCSH SCT040 BKN120
     FM280600 18010KT P6SM BKN040
     FM281400 20012G18KT P6SM SCT015 BKN040=

USA.gov is the U.S. government's official web portal to all federal, state and local government web resources and services.